Oslo, Norvegia

04:54 AM CET on martie 28, 2015 (GMT +0100)
Kikut | | Change Station
CLOSE
Current Station
Staţie meteo personală
Location: Oslo, OSLO
Elevation: 1158 ft
Nearby Weather Stations

Elev 1158 ft 60.08 °N, 10.66 °E | Updated 1 minute ago

Clear
Cer senin
23.0 °F
Feels Like 23 °F
N
0.0
Vânt variabil Vânt from NNV
Gusts 0.0 mph

astăzi
High -- | Low -- °F
--% Chance of Precip.
Ieri
High -- | Low -- °F
Precip. -- inch
5:55 AM 6:49 PM
Primul pătrar, 58% visible
Presiunea 29.86 inch
Vizibilitatea -9999.0 mile
Nori
Vânt rece 23 °F
Punctul de rouă 21 °F
Umiditatea 93%
Precipitaţii 0.01 inch
Adâncimea zăpezii Not available.
UV Not available.
Pollen Not available.
Calitatea aerului Not available.
Flu Activity Not available.
METAR ENGM 280320Z VRB02KT CAVOK M04/M05 Q1011

More Conditions Fewer Conditions

Presiunea 29.86 inch
Vizibilitatea -9999.0 mile
Nori
Vânt rece 23 °F
Punctul de rouă 21 °F
Umiditatea 93%
Precipitaţii 0.01 inch
Adâncimea zăpezii Not available.
UV Not available.
Pollen Not available.
Calitatea aerului Not available.
Flu Activity Not available.
METAR ENGM 280320Z VRB02KT CAVOK M04/M05 Q1011

More Conditions Fewer Conditions

10-Day Weather Forecast

Almanac

Astronomie

Mar. 28, 2015 Răsărit Apus
Timpul Actual
Crepusculul Civil
Crepusculul nautic
Răsărit Astronomic
Luna
Durata zilei lumină
Lungimea zilei
Tomorrow will be .
, % of the Moon is Illuminated

Extremele de azi

Country Highs Country Lows

Community

WunderPhotos

Upload Photos

1,808,923 photos uploaded!

WunderBlogs® & News

Nearby

Calitatea aerului

  Calitatea aerului Index de calitate a aerului Poluat
Not available.

Adâncimea zapezii

Station Depth Elevation

Earthquake Activity

Oraş Distance Mag. Time & Date
Minimum magnitude displayed is 2.5.

Coastal Water Temperatures

Locul Temperatura

Stations

Nearby Weather Stations

Locaţia staţiei Temp Vânt rece Punctul de rouă Umiditatea Vânt Precip. Elev Actualizare Type